Time;durP1;ratioP1;P1;durP2;ratioP2;P2;SDS_P1;SDS_P2;PMS_P1;PMS_P2;Temp;Humidity;BMP_temperature;BMP_pressure;BME280_temperature;BME280_humidity;BME280_pressure;Samples;Min_cycle;Max_cycle;Signal;HPM_P1;HPM_P2
2021/09/03 00:00:09;;;;;;;9.32;7.45;;;;;;;18.30;55.17;100653.59;6013570;23;20004;-90
2021/09/03 00:02:36;;;;;;;11.35;8.38;;;;;;;18.28;55.29;100650.22;6038500;23;20031;-91
2021/09/03 00:05:05;;;;;;;11.85;8.90;;;;;;;18.23;55.68;100645.22;6013595;23;20463;-91
2021/09/03 00:07:33;;;;;;;13.27;9.98;;;;;;;18.20;55.56;100650.78;6014120;23;20098;-91
2021/09/03 00:09:59;;;;;;;15.73;10.35;;;;;;;18.17;55.99;100643.03;6012980;23;20082;-91
2021/09/03 00:12:26;;;;;;;15.25;9.68;;;;;;;18.15;55.99;100644.94;6013293;23;20027;-91
2021/09/03 00:14:53;;;;;;;18.17;10.85;;;;;;;18.12;55.91;100648.69;6038883;23;20027;-90
2021/09/03 00:17:19;;;;;;;14.05;9.60;;;;;;;18.10;55.85;100647.97;6013668;23;20020;-90
2021/09/03 00:19:46;;;;;;;13.10;10.20;;;;;;;18.07;56.21;100649.03;6038750;23;20027;-90
2021/09/03 00:22:13;;;;;;;15.00;10.95;;;;;;;18.04;56.46;100646.56;6013565;23;20031;-90
2021/09/03 00:24:39;;;;;;;13.27;10.63;;;;;;;18.03;56.46;100641.38;6013763;23;20071;-90
2021/09/03 00:27:06;;;;;;;14.23;10.98;;;;;;;18.02;56.48;100635.16;6013724;23;20027;-90
2021/09/03 00:29:32;;;;;;;14.85;11.35;;;;;;;18.02;56.35;100634.34;6013664;23;20031;-90
2021/09/03 00:31:59;;;;;;;15.00;10.30;;;;;;;17.99;56.36;100627.44;6013132;23;20031;-90
2021/09/03 00:34:26;;;;;;;16.00;11.80;;;;;;;17.97;56.66;100630.22;6013110;23;20024;-91
2021/09/03 00:36:52;;;;;;;12.27;9.25;;;;;;;17.96;56.29;100628.50;6038639;23;20051;-91
2021/09/03 00:39:19;;;;;;;13.90;10.35;;;;;;;17.94;56.37;100629.59;6037996;23;20020;-90
2021/09/03 00:41:46;;;;;;;12.50;10.15;;;;;;;17.92;56.62;100624.38;6013016;23;20075;-90
2021/09/03 00:44:13;;;;;;;14.05;10.73;;;;;;;17.90;56.64;100622.78;6038207;23;20028;-90
2021/09/03 00:46:39;;;;;;;14.27;10.50;;;;;;;17.88;56.47;100627.38;6013538;23;20027;-91
2021/09/03 00:49:06;;;;;;;14.80;11.20;;;;;;;17.84;56.42;100621.44;6038403;23;20023;-91
2021/09/03 00:51:33;;;;;;;14.25;11.00;;;;;;;17.82;56.51;100626.88;6013200;23;20027;-90
2021/09/03 00:54:00;;;;;;;14.05;10.35;;;;;;;17.80;56.60;100615.47;6013495;23;20091;-91
2021/09/03 00:56:26;;;;;;;16.95;12.60;;;;;;;17.77;56.79;100618.38;6038275;23;20063;-90
2021/09/03 00:58:53;;;;;;;15.48;11.88;;;;;;;17.75;56.91;100617.63;6013422;23;20122;-90
2021/09/03 01:01:21;;;;;;;20.40;12.70;;;;;;;17.73;56.92;100614.22;6013156;23;20030;-90
2021/09/03 01:03:48;;;;;;;15.82;12.20;;;;;;;17.71;57.28;100614.34;6013466;23;20061;-90
2021/09/03 01:06:16;;;;;;;15.55;12.13;;;;;;;17.68;57.26;100603.91;6013381;23;20066;-90
2021/09/03 01:08:43;;;;;;;14.48;11.55;;;;;;;17.67;57.41;100607.53;6037867;23;20071;-91
2021/09/03 01:11:10;;;;;;;15.98;11.85;;;;;;;17.67;57.42;100609.34;6013217;23;20333;-90
2021/09/03 01:13:36;;;;;;;13.02;11.05;;;;;;;17.65;57.44;100609.44;6012970;23;20467;-90
2021/09/03 01:16:03;;;;;;;18.13;13.05;;;;;;;17.63;57.36;100615.84;6037463;23;20023;-90
2021/09/03 01:18:30;;;;;;;14.95;12.25;;;;;;;17.63;57.34;100607.88;6012765;23;20019;-90
2021/09/03 01:20:56;;;;;;;12.75;11.00;;;;;;;17.59;57.08;100609.91;6038557;23;20031;-90
2021/09/03 01:23:23;;;;;;;14.82;11.07;;;;;;;17.57;57.14;100614.50;6015573;23;20027;-90
2021/09/03 01:25:50;;;;;;;17.90;11.88;;;;;;;17.54;57.35;100612.91;6039407;23;20059;-90
2021/09/03 01:28:16;;;;;;;17.38;12.48;;;;;;;17.54;57.55;100612.06;6014610;23;20030;-90
2021/09/03 01:30:43;;;;;;;14.35;11.85;;;;;;;17.52;57.82;100606.84;6040146;23;20087;-89
2021/09/03 01:33:09;;;;;;;19.75;13.35;;;;;;;17.50;57.77;100608.78;6039278;23;20079;-90
2021/09/03 01:35:36;;;;;;;15.27;12.52;;;;;;;17.49;57.90;100604.41;6014441;23;20027;-90
2021/09/03 01:38:06;;;;;;;13.35;11.90;;;;;;;17.47;57.88;100606.34;6039764;23;20027;-89
2021/09/03 01:40:33;;;;;;;16.70;13.60;;;;;;;17.47;57.74;100608.13;6014714;23;20034;-90
2021/09/03 01:43:00;;;;;;;17.70;13.90;;;;;;;17.44;57.55;100599.44;6014440;23;20031;-90
2021/09/03 01:45:27;;;;;;;15.60;12.73;;;;;;;17.42;57.60;100593.34;6014730;23;20030;-90
2021/09/03 01:47:53;;;;;;;19.88;13.77;;;;;;;17.41;57.53;100594.31;6014924;23;20428;-90
2021/09/03 01:50:20;;;;;;;20.40;15.57;;;;;;;17.39;57.85;100590.09;6039667;23;20031;-90
2021/09/03 01:52:46;;;;;;;20.88;16.60;;;;;;;17.37;58.19;100586.66;6039038;23;20083;-90
2021/09/03 01:55:13;;;;;;;23.75;17.45;;;;;;;17.36;58.39;100590.28;6014463;23;20023;-90
2021/09/03 01:57:40;;;;;;;26.45;19.25;;;;;;;17.32;58.57;100585.19;6015116;23;20027;-90
2021/09/03 02:00:07;;;;;;;20.27;16.25;;;;;;;17.31;58.41;100593.31;6039071;23;20023;-91
2021/09/03 02:02:34;;;;;;;23.25;17.35;;;;;;;17.30;58.43;100588.91;6014484;23;20035;-90
2021/09/03 02:05:01;;;;;;;21.83;16.35;;;;;;;17.28;58.27;100585.53;6014237;23;20078;-90
2021/09/03 02:07:28;;;;;;;22.52;17.63;;;;;;;17.26;58.58;100590.97;6039464;23;20059;-90
2021/09/03 02:09:54;;;;;;;27.30;20.38;;;;;;;17.25;58.84;100578.63;6014295;23;20491;-90
2021/09/03 02:12:21;;;;;;;25.40;20.08;;;;;;;17.25;58.87;100591.06;6039277;23;20404;-89
2021/09/03 02:14:48;;;;;;;25.58;19.65;;;;;;;17.24;58.96;100578.72;6038893;23;20027;-89
2021/09/03 02:17:14;;;;;;;26.13;19.63;;;;;;;17.24;59.21;100582.25;6015019;23;20023;-90
2021/09/03 02:19:41;;;;;;;23.98;18.80;;;;;;;17.24;58.88;100581.38;6013933;23;20030;-89
2021/09/03 02:22:08;;;;;;;27.52;20.45;;;;;;;17.23;58.77;100582.34;6012569;23;20473;-90
2021/09/03 02:24:35;;;;;;;27.42;20.80;;;;;;;17.21;58.87;100577.16;6038032;23;20412;-89
2021/09/03 02:27:01;;;;;;;25.42;18.92;;;;;;;17.19;58.65;100581.72;6038938;23;20031;-89
2021/09/03 02:29:28;;;;;;;24.77;18.38;;;;;;;17.15;58.54;100575.78;6038944;23;20027;-90
2021/09/03 02:31:55;;;;;;;25.10;18.15;;;;;;;17.13;58.61;100575.03;6038922;23;20028;-89
2021/09/03 02:34:23;;;;;;;24.55;17.75;;;;;;;17.11;58.45;100573.44;6030215;23;20092;-90
2021/09/03 02:36:50;;;;;;;22.65;17.75;;;;;;;17.05;58.59;100567.59;5985818;23;20027;-89
2021/09/03 02:39:17;;;;;;;24.90;18.25;;;;;;;17.04;58.74;100571.22;6010824;23;20035;-89
2021/09/03 02:41:44;;;;;;;27.92;19.60;;;;;;;17.02;58.67;100574.91;5985964;23;20028;-90
2021/09/03 02:44:10;;;;;;;20.83;17.33;;;;;;;16.98;58.57;100566.31;5985509;23;20035;-89
2021/09/03 02:46:37;;;;;;;25.90;19.25;;;;;;;16.96;58.65;100567.38;6010560;23;20039;-89
2021/09/03 02:49:04;;;;;;;22.30;17.83;;;;;;;16.94;58.53;100562.19;6010585;23;20023;-90
2021/09/03 02:51:30;;;;;;;25.45;19.10;;;;;;;16.92;58.72;100564.09;5985578;23;20043;-90
2021/09/03 02:53:57;;;;;;;22.88;18.17;;;;;;;16.90;58.79;100560.69;5985758;23;20413;-90
2021/09/03 02:56:25;;;;;;;24.67;17.77;;;;;;;16.87;58.86;100560.91;6010155;23;20027;-89
2021/09/03 02:58:51;;;;;;;23.02;17.02;;;;;;;16.86;58.55;100556.56;6010237;23;20456;-90
2021/09/03 03:01:18;;;;;;;21.50;16.95;;;;;;;16.83;58.68;100562.06;6010485;23;20087;-89
2021/09/03 03:03:45;;;;;;;20.45;16.27;;;;;;;16.80;58.89;100563.16;6010360;23;20031;-89
2021/09/03 03:06:11;;;;;;;23.52;17.23;;;;;;;16.79;58.81;100558.78;5985724;23;20345;-90
2021/09/03 03:08:38;;;;;;;27.40;18.17;;;;;;;16.78;58.66;100565.03;6009039;23;20099;-90
2021/09/03 03:11:05;;;;;;;24.55;17.33;;;;;;;16.76;58.96;100564.31;5985935;23;20027;-90
2021/09/03 03:13:31;;;;;;;20.25;16.95;;;;;;;16.74;58.97;100563.59;6010725;23;20377;-89
2021/09/03 03:15:58;;;;;;;24.70;18.10;;;;;;;16.71;58.91;100559.31;5985266;23;20027;-89
2021/09/03 03:18:25;;;;;;;27.90;17.73;;;;;;;16.70;59.09;100557.63;6009964;23;20534;-89
2021/09/03 03:20:52;;;;;;;26.63;18.63;;;;;;;16.70;nan;100556.78;6010360;23;20099;-89
2021/09/03 03:23:19;;;;;;;27.20;18.65;;;;;;;16.68;59.07;100546.25;5985227;23;20099;-89
2021/09/03 03:25:46;;;;;;;27.40;20.60;;;;;;;16.67;59.25;100549.84;6010371;23;20032;-89
2021/09/03 03:28:13;;;;;;;25.80;19.25;;;;;;;16.66;59.27;100546.38;6011028;23;20023;-89
2021/09/03 03:30:40;;;;;;;34.03;20.83;;;;;;;16.66;59.25;100534.88;6010973;23;20043;-89
2021/09/03 03:33:07;;;;;;;24.75;18.73;;;;;;;16.64;59.11;100537.63;6010304;23;20039;-89
2021/09/03 03:35:33;;;;;;;26.83;19.50;;;;;;;16.62;59.37;100538.69;6007107;23;20027;-89
2021/09/03 03:38:00;;;;;;;28.83;20.45;;;;;;;16.62;59.43;100533.38;6013885;23;20087;-89
2021/09/03 03:40:27;;;;;;;23.27;18.98;;;;;;;16.60;59.53;100540.63;6013173;23;20491;-89
2021/09/03 03:42:53;;;;;;;27.48;18.75;;;;;;;16.58;59.54;100535.41;6038981;23;20027;-89
2021/09/03 03:45:20;;;;;;;27.65;19.33;;;;;;;16.58;59.41;100529.25;6013109;23;20027;-89
2021/09/03 03:47:46;;;;;;;25.35;19.05;;;;;;;16.56;59.37;100528.50;6038588;23;20023;-89
2021/09/03 03:50:13;;;;;;;23.73;18.75;;;;;;;16.54;59.48;100526.81;6013251;23;20027;-89
2021/09/03 03:52:40;;;;;;;24.58;19.67;;;;;;;16.54;59.62;100523.28;6038917;23;20027;-89
2021/09/03 03:55:07;;;;;;;33.65;22.08;;;;;;;16.52;59.81;100515.44;6013244;23;20024;-89
2021/09/03 03:57:34;;;;;;;32.35;22.15;;;;;;;16.52;60.01;100510.09;6038593;23;20030;-89
2021/09/03 04:00:01;;;;;;;31.35;20.95;;;;;;;16.51;60.02;100511.06;6038980;23;20023;-89
2021/09/03 04:02:27;;;;;;;39.20;21.08;;;;;;;16.52;60.04;100511.94;6038259;23;20046;-89
2021/09/03 04:04:54;;;;;;;40.88;22.08;;;;;;;16.51;60.29;100513.72;6037949;23;20062;-89
2021/09/03 04:07:21;;;;;;;46.33;21.45;;;;;;;16.51;60.37;100511.06;6038274;23;20027;-89
2021/09/03 04:09:47;;;;;;;46.45;20.48;;;;;;;16.52;60.55;100501.31;6013654;23;20020;-89
2021/09/03 04:12:14;;;;;;;56.58;18.90;;;;;;;16.52;60.80;100510.09;6038105;23;20027;-90
2021/09/03 04:14:41;;;;;;;121.75;21.10;;;;;;;16.53;60.67;100503.81;6013893;23;20344;-89
2021/09/03 04:17:07;;;;;;;149.55;20.58;;;;;;;16.53;60.61;100498.50;6038252;23;20058;-89
2021/09/03 04:19:34;;;;;;;62.80;16.90;;;;;;;16.53;60.61;100509.16;6038382;23;20027;-89
2021/09/03 04:22:01;;;;;;;47.30;16.00;;;;;;;16.52;60.70;100502.13;6037795;23;20035;-89
2021/09/03 04:24:27;;;;;;;52.85;15.35;;;;;;;16.51;60.90;100494.28;6037990;23;20031;-89
2021/09/03 04:26:54;;;;;;;63.13;15.55;;;;;;;16.49;61.08;100499.69;6038122;23;20031;-89
2021/09/03 04:29:21;;;;;;;38.67;13.07;;;;;;;16.47;60.90;100498.97;6038602;23;20023;-90
2021/09/03 04:31:47;;;;;;;35.10;13.13;;;;;;;16.47;60.89;100496.31;6014056;23;20030;-89
2021/09/03 04:34:14;;;;;;;36.97;13.82;;;;;;;16.46;60.86;100499.94;6013322;23;20023;-89
2021/09/03 04:36:40;;;;;;;48.35;14.77;;;;;;;16.46;61.01;100491.94;6037853;23;20027;-89
2021/09/03 04:39:07;;;;;;;39.85;12.82;;;;;;;16.45;61.02;100492.88;6038171;23;20046;-89
2021/09/03 04:41:33;;;;;;;42.78;12.15;;;;;;;16.45;61.03;100506.16;6037821;23;20397;-90
2021/09/03 04:44:00;;;;;;;64.05;12.18;;;;;;;16.45;60.88;100502.69;6012989;23;20027;-89
2021/09/03 04:46:27;;;;;;;42.28;11.52;;;;;;;16.41;60.68;100500.22;6037963;23;20031;-89
2021/09/03 04:48:53;;;;;;;24.25;10.70;;;;;;;16.40;60.75;100500.34;6038152;23;20360;-89
2021/09/03 04:51:20;;;;;;;23.73;10.35;;;;;;;16.36;60.58;100496.19;6013255;23;20027;-89
2021/09/03 04:53:47;;;;;;;11.48;10.38;;;;;;;16.32;60.50;100500.03;6037640;23;20031;-89
2021/09/03 04:56:14;;;;;;;10.43;9.32;;;;;;;16.27;60.67;100501.19;6039412;23;20031;-89
2021/09/03 04:58:40;;;;;;;14.20;9.23;;;;;;;16.23;60.38;100497.03;6039725;23;20023;-88
2021/09/03 05:01:07;;;;;;;12.93;9.75;;;;;;;16.19;60.38;100498.25;6040057;23;20031;-89
2021/09/03 05:03:34;;;;;;;11.43;10.10;;;;;;;16.17;60.54;100493.97;6039694;23;20030;-88
2021/09/03 05:06:01;;;;;;;11.23;10.15;;;;;;;16.13;60.28;100490.69;6039943;23;20079;-89
2021/09/03 05:08:27;;;;;;;12.15;10.02;;;;;;;16.12;60.31;100488.97;6040447;23;20023;-89
2021/09/03 05:10:54;;;;;;;11.13;10.02;;;;;;;16.08;60.51;100495.47;6039687;23;20031;-89
2021/09/03 05:13:20;;;;;;;12.50;11.00;;;;;;;16.07;60.51;100496.41;6014804;23;20510;-89
2021/09/03 05:15:47;;;;;;;12.43;11.13;;;;;;;16.05;60.76;100493.00;6039570;23;20023;-90
2021/09/03 05:18:14;;;;;;;12.40;11.20;;;;;;;16.04;60.74;100492.16;6015197;23;20027;-91
2021/09/03 05:20:40;;;;;;;15.88;12.40;;;;;;;16.02;60.76;100500.25;6039637;23;20114;-91
2021/09/03 05:23:07;;;;;;;14.15;12.38;;;;;;;16.02;60.83;100494.06;6039995;23;20027;-91
2021/09/03 05:25:34;;;;;;;16.40;13.15;;;;;;;16.03;60.82;100495.75;6039265;23;20027;-90
2021/09/03 05:28:01;;;;;;;15.45;12.93;;;;;;;16.01;61.12;100500.34;6039797;23;20333;-90
2021/09/03 05:30:28;;;;;;;20.67;14.43;;;;;;;16.01;61.24;100498.50;6039681;23;20023;-90
2021/09/03 05:32:54;;;;;;;22.13;15.18;;;;;;;16.01;61.38;100498.50;6039605;23;20027;-90
2021/09/03 05:35:24;;;;;;;17.90;14.50;;;;;;;16.01;61.57;100501.16;6014213;23;20027;-89
2021/09/03 05:37:51;;;;;;;17.38;13.70;;;;;;;16.01;61.63;100495.84;6040069;23;20030;-89
2021/09/03 05:40:18;;;;;;;19.38;14.65;;;;;;;16.02;61.68;100502.91;6014835;23;20023;-91
2021/09/03 05:42:45;;;;;;;20.20;14.63;;;;;;;16.03;61.85;100498.41;6014471;23;20027;-90
2021/09/03 05:45:12;;;;;;;22.50;14.95;;;;;;;16.04;61.85;100496.63;6039000;23;20028;-90
2021/09/03 05:47:45;;;;;;;23.33;16.08;;;;;;;16.05;62.91;100500.97;6039464;23;20028;-90
2021/09/03 05:50:13;;;;;;;22.98;15.75;;;;;;;16.08;62.38;100496.31;6014909;23;20038;-90
2021/09/03 05:52:40;;;;;;;23.20;15.77;;;;;;;16.10;62.66;100491.75;6013975;23;20035;-90
2021/09/03 05:55:08;;;;;;;23.52;16.58;;;;;;;16.14;62.89;100497.69;6039801;23;20023;-90
2021/09/03 05:57:34;;;;;;;23.55;16.55;;;;;;;16.17;63.23;100489.50;6014162;23;20490;-90
2021/09/03 06:00:01;;;;;;;24.35;17.67;;;;;;;16.22;63.38;100489.19;6014629;23;20023;-90
2021/09/03 06:02:28;;;;;;;26.90;17.30;;;;;;;16.26;63.67;100488.88;6039419;23;20027;-90
2021/09/03 06:04:55;;;;;;;25.45;17.05;;;;;;;16.30;63.61;100486.88;6039483;23;20030;-90
2021/09/03 06:07:21;;;;;;;20.00;15.93;;;;;;;16.35;63.50;100483.88;6038521;23;20030;-90
2021/09/03 06:09:48;;;;;;;23.40;16.83;;;;;;;16.40;63.76;100487.06;6039033;23;20030;-90
2021/09/03 06:12:15;;;;;;;21.75;16.30;;;;;;;16.47;63.50;100479.50;6014038;23;20468;-90
2021/09/03 06:14:41;;;;;;;21.38;16.50;;;;;;;16.51;63.63;100478.31;6039262;23;20094;-91
2021/09/03 06:17:08;;;;;;;24.08;15.77;;;;;;;16.56;63.84;100485.97;6014552;23;20034;-89
2021/09/03 06:19:35;;;;;;;25.85;18.10;;;;;;;16.61;64.03;100487.38;6014376;23;20330;-90
2021/09/03 06:22:01;;;;;;;25.30;17.95;;;;;;;16.67;64.10;100483.41;6039350;23;20034;-90
2021/09/03 06:24:29;;;;;;;25.10;18.38;;;;;;;16.73;64.16;100480.31;6013850;23;20027;-90
2021/09/03 06:27:05;;;;;;;30.10;18.80;;;;;;;16.78;65.12;100472.84;6014505;23;20023;-90
2021/09/03 06:29:40;;;;;;;28.33;19.08;;;;;;;16.86;64.30;100484.75;6039309;23;20031;-90
2021/09/03 06:32:14;;;;;;;28.95;18.55;;;;;;;16.90;65.04;100480.91;6014876;23;20102;-90
2021/09/03 06:34:44;;;;;;;29.15;19.00;;;;;;;16.97;64.67;100482.16;6014014;23;20487;-90
2021/09/03 06:37:10;;;;;;;27.33;18.88;;;;;;;17.04;64.37;100477.22;6014453;23;20555;-92
2021/09/03 06:39:38;;;;;;;26.63;19.40;;;;;;;17.09;64.51;100479.59;6014314;23;20019;-90
2021/09/03 06:42:06;;;;;;;27.55;18.38;;;;;;;17.15;64.43;100476.47;6014068;23;20030;-91
2021/09/03 06:44:34;;;;;;;25.58;17.55;;;;;;;17.21;64.44;100481.38;6014260;23;20027;-91
2021/09/03 06:47:02;;;;;;;24.00;15.82;;;;;;;17.27;64.77;100488.88;6013982;23;20563;-91
2021/09/03 06:49:29;;;;;;;26.33;17.80;;;;;;;17.36;64.52;100483.84;6014352;23;20019;-90
2021/09/03 06:51:56;;;;;;;27.92;18.60;;;;;;;17.41;64.90;100489.66;6014634;23;20027;-90
2021/09/03 06:54:22;;;;;;;25.52;16.63;;;;;;;17.48;64.73;100490.94;6013773;23;20471;-90
2021/09/03 06:56:49;;;;;;;24.70;16.88;;;;;;;17.54;64.81;100493.13;6014287;23;20324;-90
2021/09/03 06:59:16;;;;;;;24.52;16.63;;;;;;;17.61;64.67;100480.22;6014277;23;20020;-91
2021/09/03 07:01:42;;;;;;;26.30;16.02;;;;;;;17.68;64.36;100492.09;6038891;23;20031;-91
2021/09/03 07:04:09;;;;;;;25.58;16.90;;;;;;;17.74;64.53;100488.13;6038888;23;20027;-90
2021/09/03 07:06:36;;;;;;;27.88;16.30;;;;;;;17.82;64.15;100492.84;6014339;23;20035;-90
2021/09/03 07:09:06;;;;;;;25.50;17.40;;;;;;;17.87;64.14;100489.84;6039289;23;20348;-90
2021/09/03 07:11:34;;;;;;;25.17;16.83;;;;;;;17.92;64.42;100488.53;6013863;23;20034;-90
2021/09/03 07:14:02;;;;;;;22.80;16.60;;;;;;;17.99;64.23;100488.91;6014220;23;20024;-90
2021/09/03 07:16:29;;;;;;;22.98;16.45;;;;;;;18.05;63.94;100490.25;6014064;23;20027;-90
2021/09/03 07:18:56;;;;;;;25.27;15.40;;;;;;;18.12;64.15;100498.66;6013973;23;20023;-91
2021/09/03 07:21:23;;;;;;;24.65;15.82;;;;;;;18.18;64.38;100490.19;6013899;23;20397;-90
2021/09/03 07:23:51;;;;;;;22.05;15.95;;;;;;;18.25;64.30;100496.75;6014417;23;20540;-91
2021/09/03 07:26:18;;;;;;;21.92;16.15;;;;;;;18.30;63.96;100483.03;6038896;23;20031;-90
2021/09/03 07:28:44;;;;;;;24.63;13.57;;;;;;;18.36;63.98;100486.06;6039033;23;20468;-91
2021/09/03 07:31:11;;;;;;;22.77;14.80;;;;;;;18.42;63.86;100486.56;6013642;23;20071;-91
2021/09/03 07:33:38;;;;;;;22.73;13.50;;;;;;;18.49;63.75;100482.44;6038555;23;20038;-91
2021/09/03 07:36:05;;;;;;;23.75;13.82;;;;;;;18.54;63.58;100485.59;5986355;23;20083;-91
2021/09/03 07:38:33;;;;;;;23.65;14.60;;;;;;;18.59;63.32;100487.91;5986690;23;20495;-91
2021/09/03 07:41:01;;;;;;;22.00;14.90;;;;;;;18.64;63.31;100480.38;5985391;23;20094;-91
2021/09/03 07:43:27;;;;;;;20.83;14.95;;;;;;;18.69;63.25;100490.69;5985481;23;20024;-91
2021/09/03 07:45:58;;;;;;;21.00;14.35;;;;;;;18.74;63.07;100491.16;5986954;23;20341;-92
2021/09/03 07:48:25;;;;;;;19.55;13.73;;;;;;;18.79;62.92;100486.31;5985850;23;20487;-90
2021/09/03 07:50:52;;;;;;;20.27;12.50;;;;;;;18.83;63.00;100487.75;5986289;23;20024;-92
2021/09/03 07:53:19;;;;;;;22.63;14.25;;;;;;;18.86;62.88;100486.66;6010853;23;20063;-92
2021/09/03 07:55:46;;;;;;;22.77;14.38;;;;;;;18.91;62.99;100487.13;5986429;23;20030;-93
2021/09/03 07:58:12;;;;;;;22.50;14.52;;;;;;;18.95;62.95;100493.91;5985726;23;20032;-92
2021/09/03 08:00:39;;;;;;;22.75;14.20;;;;;;;19.00;63.03;100490.88;5986176;23;20020;-92
2021/09/03 08:03:06;;;;;;;21.30;14.20;;;;;;;19.05;62.88;100480.72;6010963;23;20027;-92
2021/09/03 08:05:33;;;;;;;22.00;13.82;;;;;;;19.11;62.78;100488.19;6010301;23;20028;-92
2021/09/03 08:08:02;;;;;;;20.08;13.98;;;;;;;19.14;62.36;100485.28;6010257;23;20028;-92
2021/09/03 08:10:32;;;;;;;23.10;14.32;;;;;;;19.18;62.25;100487.72;5985717;23;20024;-92
2021/09/03 08:13:00;;;;;;;21.23;14.52;;;;;;;19.22;62.50;100489.16;6010060;23;20092;-92
2021/09/03 08:15:28;;;;;;;23.40;15.73;;;;;;;19.26;61.95;100486.09;6010777;23;20353;-92
2021/09/03 08:17:55;;;;;;;29.75;18.13;;;;;;;19.30;62.28;100489.38;5985654;23;20084;-91
2021/09/03 08:20:22;;;;;;;26.15;16.00;;;;;;;19.34;62.22;100489.97;6010334;23;20027;-91
2021/09/03 08:22:51;;;;;;;24.17;16.38;;;;;;;19.38;61.91;100484.25;5985621;23;20495;-91
2021/09/03 08:25:20;;;;;;;23.13;15.48;;;;;;;19.39;62.11;100488.63;6010314;23;20457;-92
2021/09/03 08:27:49;;;;;;;25.30;15.82;;;;;;;19.45;61.88;100486.41;5985786;23;20083;-92
2021/09/03 08:30:17;;;;;;;23.10;16.05;;;;;;;19.48;61.94;100483.50;6009907;23;20031;-90
2021/09/03 08:32:45;;;;;;;22.23;16.15;;;;;;;19.50;61.95;100482.38;5987568;23;20035;-92
2021/09/03 08:35:12;;;;;;;19.70;14.90;;;;;;;19.54;61.84;100485.63;6011652;23;20032;-90
2021/09/03 08:37:40;;;;;;;23.35;15.48;;;;;;;19.56;61.52;100478.34;5987248;23;20027;-91
2021/09/03 08:40:09;;;;;;;21.02;15.15;;;;;;;19.59;61.46;100485.25;5987265;23;20030;-89
2021/09/03 08:42:38;;;;;;;21.35;15.95;;;;;;;19.61;61.37;100484.16;6012135;23;20468;-92
2021/09/03 08:45:08;;;;;;;22.58;15.55;;;;;;;19.63;61.92;100492.88;5986924;23;20024;-90
2021/09/03 08:47:37;;;;;;;24.90;15.85;;;;;;;19.66;61.97;100484.63;5987077;23;20059;-90
2021/09/03 08:50:05;;;;;;;23.60;17.50;;;;;;;19.71;62.39;100491.38;5987357;23;20023;-91
2021/09/03 08:52:33;;;;;;;22.60;15.45;;;;;;;19.74;62.29;100491.97;5987666;23;20329;-91
2021/09/03 08:54:59;;;;;;;18.75;15.70;;;;;;;19.79;62.25;100483.56;5987223;23;20020;-92
2021/09/03 08:57:26;;;;;;;19.63;14.10;;;;;;;19.83;62.27;100482.34;6012133;23;20031;-92
2021/09/03 08:59:53;;;;;;;21.73;14.82;;;;;;;19.89;62.25;100487.16;5987392;23;20031;-90
2021/09/03 09:02:22;;;;;;;21.08;15.30;;;;;;;19.95;62.13;100485.78;5988043;23;20031;-91
2021/09/03 09:04:52;;;;;;;21.15;15.43;;;;;;;20.01;62.20;100487.13;6012386;23;20043;-91
2021/09/03 09:07:19;;;;;;;18.67;13.95;;;;;;;20.09;62.05;100481.13;5987368;23;20031;-92
2021/09/03 09:10:18;;;;;;;23.70;15.48;;;;;;;20.12;61.92;100480.84;6013018;23;20020;-91
2021/09/03 09:12:45;;;;;;;22.13;14.55;;;;;;;20.27;61.83;100484.91;5927991;23;20051;-91
2021/09/03 09:15:14;;;;;;;20.45;14.10;;;;;;;20.35;61.91;100476.19;5988153;23;20541;-91
2021/09/03 09:17:43;;;;;;;19.05;13.55;;;;;;;20.43;61.91;100473.69;6011655;23;20031;-91
2021/09/03 09:20:12;;;;;;;19.63;15.55;;;;;;;20.52;61.95;100476.56;5987027;23;20027;-91
2021/09/03 09:22:57;;;;;;;18.90;13.82;;;;;;;20.58;61.79;100476.00;5987673;23;20024;-92
2021/09/03 09:25:29;;;;;;;19.48;14.30;;;;;;;20.68;61.61;100476.88;5987494;23;20035;-91
2021/09/03 09:28:14;;;;;;;20.95;14.35;;;;;;;20.77;62.19;100477.88;5987669;23;20027;-92
2021/09/03 09:30:43;;;;;;;19.80;14.30;;;;;;;20.90;61.70;100476.84;5987614;23;20039;-91
2021/09/03 09:33:18;;;;;;;19.92;14.80;;;;;;;21.00;61.98;100471.50;6012542;23;20061;-91
2021/09/03 09:35:50;;;;;;;18.90;13.27;;;;;;;21.09;61.61;100468.81;6012305;23;20027;-91
2021/09/03 09:38:20;;;;;;;15.80;12.60;;;;;;;21.22;61.67;100476.59;6015728;23;20027;-91
2021/09/03 09:40:49;;;;;;;18.08;12.82;;;;;;;21.33;61.20;100467.59;6018011;23;20075;-91
2021/09/03 09:43:31;;;;;;;20.23;15.00;;;;;;;21.43;61.58;100478.31;6016198;23;20030;-91
2021/09/03 09:46:15;;;;;;;16.60;12.88;;;;;;;21.58;60.96;100472.50;6015038;23;20027;-91
2021/09/03 09:48:48;;;;;;;17.05;12.00;;;;;;;21.70;60.06;100466.00;6015724;23;20083;-90
2021/09/03 09:51:21;;;;;;;17.95;11.52;;;;;;;21.82;59.95;100469.41;6015784;23;20019;-91
2021/09/03 09:53:55;;;;;;;16.15;11.25;;;;;;;21.92;59.67;100464.03;6016286;23;20027;-91
2021/09/03 09:56:22;;;;;;;21.50;11.52;;;;;;;22.05;59.70;100458.34;6015576;23;20038;-91
2021/09/03 09:58:51;;;;;;;15.45;10.80;;;;;;;22.15;59.88;100458.31;6015636;23;20452;-91
2021/09/03 10:01:18;;;;;;;16.42;11.82;;;;;;;22.25;60.21;100455.59;6040350;23;20023;-91
2021/09/03 10:03:51;;;;;;;14.85;10.02;;;;;;;22.34;59.50;100456.53;6016351;23;20030;-91
2021/09/03 10:06:23;;;;;;;14.50;10.20;;;;;;;22.44;58.87;100457.38;6041244;23;20034;-91
2021/09/03 10:08:50;;;;;;;14.20;10.20;;;;;;;22.54;58.60;100457.28;6015927;23;20126;-90
2021/09/03 10:11:18;;;;;;;20.20;10.73;;;;;;;22.63;58.66;100455.59;6015094;23;20591;-91
2021/09/03 10:13:46;;;;;;;13.68;10.18;;;;;;;22.73;58.84;100458.25;6014947;23;20046;-91
2021/09/03 10:16:13;;;;;;;13.32;9.70;;;;;;;22.84;58.68;100454.50;6014542;23;20042;-92
2021/09/03 10:18:43;;;;;;;12.70;9.70;;;;;;;22.96;59.13;100455.97;6015096;23;20023;-93
2021/09/03 10:21:11;;;;;;;14.35;10.40;;;;;;;23.11;58.60;100453.63;6040959;23;20023;-92
2021/09/03 10:24:05;;;;;;;16.13;9.77;;;;;;;23.23;58.82;100451.53;6015442;23;20031;-92
2021/09/03 10:26:38;;;;;;;17.13;10.35;;;;;;;23.38;57.87;100451.88;6016284;23;20042;-91
2021/09/03 10:29:32;;;;;;;19.85;10.93;;;;;;;23.49;58.77;100460.69;6016789;23;20023;-92
2021/09/03 10:32:08;;;;;;;14.75;9.68;;;;;;;23.63;57.40;100452.03;6014535;23;20486;-92
2021/09/03 10:34:53;;;;;;;14.23;9.95;;;;;;;23.72;57.09;100444.91;6014629;23;20027;-90
2021/09/03 10:37:26;;;;;;;13.32;8.40;;;;;;;23.88;57.26;100438.78;6015036;23;20031;-91
2021/09/03 10:40:02;;;;;;;11.95;8.82;;;;;;;23.97;56.65;100437.00;6014657;23;20031;-88
2021/09/03 10:42:35;;;;;;;14.90;9.50;;;;;;;24.08;56.77;100444.78;6015340;23;20052;-91
2021/09/03 10:45:01;;;;;;;16.00;9.70;;;;;;;24.23;56.19;100432.63;6015834;23;20019;-91
2021/09/03 10:47:33;;;;;;;12.98;9.75;;;;;;;24.34;56.21;100429.66;6041060;23;20027;-90
2021/09/03 10:50:34;;;;;;;12.45;8.98;;;;;;;24.44;55.52;100426.81;6014561;23;20468;-92
2021/09/03 10:53:04;;;;;;;13.38;7.80;;;;;;;24.62;55.30;100433.97;6039463;23;20023;-90
2021/09/03 10:55:46;;;;;;;14.48;8.95;;;;;;;24.72;57.18;100434.66;6015212;23;20090;-91
2021/09/03 10:58:50;;;;;;;15.68;9.23;;;;;;;24.88;55.57;100433.03;6014822;23;20032;-91
2021/09/03 11:01:29;;;;;;;12.95;9.55;;;;;;;25.09;54.53;100430.72;6005323;23;20026;-91
2021/09/03 11:04:11;;;;;;;17.17;9.77;;;;;;;25.34;55.63;100421.81;6014061;23;20459;-90
2021/09/03 11:06:41;;;;;;;16.13;9.02;;;;;;;25.68;56.86;100418.09;6014423;23;20023;-90
2021/09/03 11:09:17;;;;;;;11.93;7.95;;;;;;;26.12;54.88;100415.97;6014263;23;20030;-91
2021/09/03 11:11:45;;;;;;;12.18;8.45;;;;;;;26.65;56.32;100413.56;6014572;23;20023;-92
2021/09/03 11:14:18;;;;;;;11.55;9.23;;;;;;;27.28;54.26;100409.13;6039567;23;20027;-92